עמוד ראשי
METAR-TAF:

METAR-TAF

שדות תעופה :

ריו גז'גוס, ארגנטינה

קו רוחב: 51-37S, קו אורך: 069-17W, גובה: 20מטר

תצפית מזג אוויר נוכחית

הדו"ח נערך לפני 35דקות, בשעה 09:00 UTC
רוח 2קשר מכיוון מערב/דרום-מערב
טמפרטורת -7 צלסיוס
לחות 93%
לחץ 1013 hPa
ראות: 1500מטר
עננים פזורים בגובה 200רגל
עננים בינוניים בגובה 400רגל

METAR: SAWG 270900Z 25002KT 1500 BCFZFG SCT002 BKN004 M07/M08 Q1013

זמן: 06:35 (09:35 UTC)

תחזית

הדו"ח נערך לפני 4 שעות ו 20דקות, בשעה 05:15 UTC
תחזית בתוקף מ 27 ב 06 UTC עד 28 ב 06 UTC
רוח 3קשר עם כיוונים משתנים
ראות: 3000מטר
עננים פזורים בגובה 1500רגל
אד
זמנית מ -
27 ב 06 UTC עד 27 ב 12 UTC
ראות: 0800מטר
עננים פזורים בגובה 1000רגל
ערפל קפוא
יעשה מ
27 ב 12 UTC עד 27 ב 15 UTC
ראות 10 קילומטר או יותר
עננים פזורים בגובה 3000רגל

TAF: SAWG 270515Z 2706/2806 VRB03KT 3000 BR SCT015 TX04/2718Z TNM09/2709Z TEMPO 2706/2712 0800 FZFG SCT010 BECMG 2712/2715 9999 NSW SCT030

תצפיות ותחזיות מזג אוויר לגבי יותר מ- 4,000 שדות תעופה ברחבי העולם. דוחות METAR ו- TAF.

התחנות הזמינות מסומנות בנקודות צהובות ואדומות על גבי המפה.

העבר את העכבר לנקודה הצבעונית על מנת לראות את שם התחנה.

לאחר מכן, לחץ כדי לראות את תוכן ואת תחזיות מזג האוויר.

כדי לשנות את המפה: לחץ על הכפתורים הירוקים עם הפלוס השחור כדי להתקרב; על הכפתור הירוק עם המקף כדי להתרחק; או בחיצים הירוקים למפות סמוכות.


METAR-TAF: